Onset, MA (02558)

8:40 AM EST on February 06, 2016 (GMT -0500)
Shell Point | | Change Station
CLOSE
Current Station
Personal Weather Station
Location: Wareham, MA
Elevation: 20 ft
Nearby Weather Stations

Elev 20 ft 41.74 °N, 70.66 °W | Updated 49 seconds ago

Partly Cloudy
Partly Cloudy
20.5 °F
Feels Like 20 °F
N
0.0
Wind Variable Wind from NNE

Today
High -- | Low -- °F
--% Chance of Precip.
Yesterday
High -- | Low -- °F
Precip. -- in
Pressure 30.39 in
Visibility 10.0 miles
Clouds Clear
Windchill 20 °F
Dew Point 20 °F
Humidity 97%
Rainfall 0.00 in
Snow Depth Not available.
6:50 AM 5:03 PM
Waning Crescent, 5% visible
METAR KPYM 061252Z AUTO 23003KT 10SM CLR M07/M09 A3038 RMK AO2 SLP289 T10721089 $
Pressure 30.39 in
Visibility 10.0 miles
Clouds Clear
Windchill 20 °F
Dew Point 20 °F
Humidity 97%
Rainfall 0.00 in
Snow Depth Not available.
6:50 AM 5:03 PM
Waning Crescent, 5% visible
METAR KPYM 061252Z AUTO 23003KT 10SM CLR M07/M09 A3038 RMK AO2 SLP289 T10721089 $

10-Day Weather Forecast

Almanac

Astronomy

Feb. 06, 2016 Rise Set
Actual Time
Civil Twilight
Nautical Twilight
Astronomical Twilight
Moon
Length of Visible Light
Length of Day
Tomorrow will be .
, % of the Moon is Illuminated

Today's Extremes

State Highs State Lows

Community

WunderPhotos

Upload Photos

1,890,971 photos uploaded!

WunderBlog® & News

Nearby

Air Quality

  Air Quality AQ Index Pollutant
Not available.

Snow Depth

Station Depth Elevation

Earthquake Activity

City Distance Mag. Time & Date
Minimum magnitude displayed is 2.5.

Coastal Water Temperatures

Place Temperature

Stations

Nearby Weather Stations

Station Location Temp. Windchill Dew Point Humidity Wind Precip. Elev Updated Type
                   

Watches & Warnings

There are currently no watches in effect.